createdAt,value
2019-06-20T00:00:11.917Z,21.30
2019-06-20T00:01:16.966Z,21.30
2019-06-20T00:02:21.596Z,21.30
2019-06-20T00:03:26.798Z,21.30
2019-06-20T00:04:31.766Z,21.40
2019-06-20T00:05:37.002Z,21.30
2019-06-20T00:06:42.790Z,21.40
2019-06-20T00:07:47.935Z,21.40
2019-06-20T00:08:52.493Z,21.40
2019-06-20T00:09:57.801Z,21.40
2019-06-20T00:11:02.412Z,21.40
2019-06-20T00:12:07.545Z,21.40
2019-06-20T00:13:12.417Z,21.40
2019-06-20T00:14:17.532Z,21.30
2019-06-20T00:15:22.093Z,21.10
2019-06-20T00:16:27.212Z,21.10
2019-06-20T00:17:31.869Z,21.00
2019-06-20T00:18:36.998Z,20.90
2019-06-20T00:19:41.680Z,20.90
2019-06-20T00:20:46.900Z,20.90
2019-06-20T00:21:51.414Z,21.00
2019-06-20T00:22:56.580Z,21.10
2019-06-20T00:24:01.215Z,21.20
2019-06-20T00:25:06.614Z,21.20
2019-06-20T00:26:11.287Z,21.30
2019-06-20T00:27:16.408Z,21.40
2019-06-20T00:28:20.982Z,21.30
2019-06-20T00:29:26.111Z,21.30
2019-06-20T00:30:31.425Z,21.30
2019-06-20T00:31:36.610Z,21.20
2019-06-20T00:32:41.289Z,21.30
2019-06-20T00:33:46.475Z,21.30
2019-06-20T00:34:50.999Z,21.20
2019-06-20T00:35:56.230Z,21.20
2019-06-20T00:37:00.815Z,20.90
2019-06-20T00:38:06.009Z,20.80
2019-06-20T00:39:10.730Z,20.70
2019-06-20T00:40:16.084Z,20.60
2019-06-20T00:41:20.673Z,20.60
2019-06-20T00:42:25.741Z,20.70
2019-06-20T00:43:31.894Z,20.70
2019-06-20T00:44:39.750Z,20.80
2019-06-20T00:45:44.319Z,20.90
2019-06-20T00:46:49.547Z,20.90
2019-06-20T00:47:54.217Z,21.00
2019-06-20T00:48:59.342Z,21.00
2019-06-20T00:50:05.217Z,21.10
2019-06-20T00:51:10.561Z,21.10
2019-06-20T00:52:15.024Z,21.10
2019-06-20T00:53:20.139Z,21.10
2019-06-20T00:54:24.710Z,21.00
2019-06-20T00:55:30.025Z,21.00
2019-06-20T00:56:34.793Z,20.90
2019-06-20T00:57:39.959Z,20.90
2019-06-20T00:58:44.505Z,20.80
2019-06-20T00:59:49.785Z,20.80
2019-06-20T01:00:54.271Z,20.80
2019-06-20T01:01:59.439Z,20.70
2019-06-20T01:03:03.952Z,20.60
2019-06-20T01:04:09.215Z,20.70
2019-06-20T01:05:14.173Z,20.90
2019-06-20T01:06:19.219Z,21.00
2019-06-20T01:07:23.801Z,21.10
2019-06-20T01:08:29.304Z,21.20
2019-06-20T01:09:33.827Z,21.20
2019-06-20T01:10:38.963Z,21.20
2019-06-20T01:11:43.628Z,21.20
2019-06-20T01:12:48.926Z,21.20
2019-06-20T01:13:53.563Z,21.20
2019-06-20T01:14:58.688Z,21.20
2019-06-20T01:16:03.257Z,21.20
2019-06-20T01:17:08.447Z,21.30
2019-06-20T01:18:13.219Z,21.30
2019-06-20T01:19:18.348Z,21.20
2019-06-20T01:20:23.614Z,21.20
2019-06-20T01:21:29.189Z,21.20
2019-06-20T01:22:33.696Z,21.20
2019-06-20T01:23:38.845Z,21.20
2019-06-20T01:24:43.381Z,21.30
2019-06-20T01:25:48.574Z,21.40
2019-06-20T01:26:53.142Z,21.40
2019-06-20T01:27:58.234Z,21.40
2019-06-20T01:29:02.745Z,21.50
2019-06-20T01:30:09.610Z,21.50
2019-06-20T01:31:14.364Z,21.50
2019-06-20T01:32:19.418Z,21.50
2019-06-20T01:33:24.045Z,21.50
2019-06-20T01:34:29.250Z,21.50
2019-06-20T01:35:33.770Z,21.60
2019-06-20T01:36:38.932Z,21.50
2019-06-20T01:37:43.492Z,21.60
2019-06-20T01:38:48.723Z,21.50
2019-06-20T01:39:53.275Z,21.50
2019-06-20T01:40:58.395Z,21.60
2019-06-20T01:42:02.832Z,21.60
2019-06-20T01:43:07.956Z,21.60
2019-06-20T01:44:12.456Z,21.60
2019-06-20T01:45:18.018Z,21.60
2019-06-20T01:46:22.581Z,21.60
2019-06-20T01:47:27.795Z,21.50
2019-06-20T01:48:32.636Z,21.50
2019-06-20T01:49:37.645Z,21.40
2019-06-20T01:50:42.321Z,21.40
2019-06-20T01:51:47.403Z,21.40
2019-06-20T01:52:51.943Z,21.40
2019-06-20T01:53:57.171Z,21.40
2019-06-20T01:55:01.740Z,21.50
2019-06-20T01:56:06.946Z,21.50
2019-06-20T01:57:11.590Z,21.40
2019-06-20T01:58:16.857Z,21.30
2019-06-20T01:59:21.538Z,21.30
2019-06-20T02:00:43.193Z,21.30
2019-06-20T02:01:47.880Z,21.40
2019-06-20T02:02:52.982Z,21.30
2019-06-20T02:03:57.502Z,21.30
2019-06-20T02:05:02.621Z,21.30
2019-06-20T02:06:07.239Z,21.40
2019-06-20T02:07:12.547Z,21.40
2019-06-20T02:08:17.431Z,21.40
2019-06-20T02:09:22.503Z,21.40
2019-06-20T02:10:26.996Z,21.40
2019-06-20T02:11:32.269Z,21.50
2019-06-20T02:12:36.990Z,21.60
2019-06-20T02:13:42.190Z,21.60
2019-06-20T02:14:46.762Z,21.70
2019-06-20T02:15:51.884Z,21.50
2019-06-20T02:16:56.517Z,21.50
2019-06-20T02:18:01.641Z,21.50
2019-06-20T02:19:06.321Z,21.50
2019-06-20T02:20:20.734Z,21.50
2019-06-20T02:21:25.258Z,21.40
2019-06-20T02:22:30.399Z,21.40
2019-06-20T02:23:34.874Z,21.50
2019-06-20T02:24:40.344Z,21.50
2019-06-20T02:25:44.856Z,21.50
2019-06-20T02:28:14.635Z,21.50
2019-06-20T02:29:19.806Z,21.50
2019-06-20T02:30:24.471Z,21.40
2019-06-20T02:31:29.559Z,21.30
2019-06-20T02:32:34.117Z,21.20
2019-06-20T02:33:39.420Z,21.20
2019-06-20T02:34:43.957Z,21.10
2019-06-20T02:35:49.032Z,21.20
2019-06-20T02:36:53.667Z,21.20
2019-06-20T02:37:58.820Z,21.30
2019-06-20T02:39:03.696Z,21.30
2019-06-20T02:40:09.185Z,21.30
2019-06-20T02:41:16.923Z,21.30
2019-06-20T02:42:22.250Z,21.30
2019-06-20T02:43:27.221Z,21.40
2019-06-20T02:44:32.484Z,21.40
2019-06-20T02:45:38.526Z,21.40
2019-06-20T02:46:43.902Z,21.40
2019-06-20T02:47:48.675Z,21.40
2019-06-20T02:48:53.756Z,21.40
2019-06-20T02:49:58.369Z,21.50
2019-06-20T02:51:04.365Z,21.40
2019-06-20T02:52:09.182Z,21.40
2019-06-20T02:53:14.680Z,21.30
2019-06-20T02:54:19.371Z,21.20
2019-06-20T02:55:24.381Z,21.30
2019-06-20T02:56:28.771Z,21.30
2019-06-20T02:57:33.775Z,21.20
2019-06-20T02:58:38.168Z,21.10
2019-06-20T02:59:43.154Z,21.10
2019-06-20T03:01:05.975Z,21.00
2019-06-20T03:02:11.129Z,21.10
2019-06-20T03:03:15.746Z,21.20
2019-06-20T03:04:20.643Z,21.20
2019-06-20T03:05:25.042Z,21.20
2019-06-20T03:06:30.081Z,21.10
2019-06-20T03:07:34.724Z,21.00
2019-06-20T03:08:39.676Z,21.10
2019-06-20T03:09:44.102Z,21.10
2019-06-20T03:10:49.091Z,21.20
2019-06-20T03:11:55.961Z,21.20
2019-06-20T03:13:00.869Z,21.30
2019-06-20T03:14:05.405Z,21.30
2019-06-20T03:15:10.609Z,21.20
2019-06-20T03:16:15.198Z,21.20
2019-06-20T03:17:39.262Z,21.20
2019-06-20T03:18:43.691Z,21.30
2019-06-20T03:19:49.008Z,21.30
2019-06-20T03:20:53.363Z,21.30
2019-06-20T03:21:58.405Z,21.20
2019-06-20T03:23:02.773Z,21.30
2019-06-20T03:24:07.859Z,21.20
2019-06-20T03:25:15.353Z,21.10
2019-06-20T03:26:20.392Z,21.10
2019-06-20T03:27:24.819Z,21.00
2019-06-20T03:28:29.946Z,21.10
2019-06-20T03:29:34.330Z,21.20
2019-06-20T03:30:39.359Z,21.20
2019-06-20T03:31:43.710Z,21.00
2019-06-20T03:32:48.702Z,21.00
2019-06-20T03:33:53.103Z,21.00
2019-06-20T03:34:58.119Z,21.10
2019-06-20T03:36:03.071Z,21.10
2019-06-20T03:37:08.205Z,21.10
2019-06-20T03:38:16.371Z,21.10
2019-06-20T03:39:21.411Z,21.20
2019-06-20T03:40:25.980Z,21.20
2019-06-20T03:41:31.178Z,21.30
2019-06-20T03:42:35.588Z,21.30
2019-06-20T03:43:43.338Z,21.30
2019-06-20T03:45:01.260Z,21.30
2019-06-20T03:45:54.620Z,21.30
2019-06-20T03:46:59.075Z,21.30
2019-06-20T03:48:04.085Z,21.30
2019-06-20T03:49:08.523Z,21.30
2019-06-20T03:50:14.738Z,21.30
2019-06-20T03:51:19.195Z,21.30
2019-06-20T03:52:24.257Z,21.20
2019-06-20T03:53:28.882Z,21.20
2019-06-20T03:54:35.478Z,21.20
2019-06-20T03:55:39.923Z,21.20
2019-06-20T03:56:44.975Z,21.20
2019-06-20T03:57:49.518Z,21.20
2019-06-20T03:58:54.662Z,21.30
2019-06-20T03:59:59.141Z,21.30
2019-06-20T04:01:04.078Z,21.30
2019-06-20T04:02:08.572Z,21.40
2019-06-20T04:03:14.338Z,21.30
2019-06-20T04:04:18.851Z,21.30
2019-06-20T04:05:23.777Z,21.40
2019-06-20T04:06:28.339Z,21.50
2019-06-20T04:07:33.483Z,21.50
2019-06-20T04:08:37.849Z,21.50
2019-06-20T04:09:42.850Z,21.50
2019-06-20T04:10:47.268Z,21.50
2019-06-20T04:11:52.356Z,21.50
2019-06-20T04:12:56.806Z,21.50
2019-06-20T04:14:02.940Z,21.50
2019-06-20T04:15:18.551Z,21.50
2019-06-20T04:16:14.824Z,21.50
2019-06-20T04:17:19.329Z,21.50
2019-06-20T04:18:25.244Z,21.50
2019-06-20T04:19:29.746Z,21.50
2019-06-20T04:20:34.751Z,21.50
2019-06-20T04:21:39.170Z,21.60
2019-06-20T04:22:46.046Z,21.60
2019-06-20T04:23:50.951Z,21.70
2019-06-20T04:24:55.952Z,21.70
2019-06-20T04:26:00.497Z,21.70
2019-06-20T04:27:05.592Z,21.70
2019-06-20T04:28:10.547Z,21.80
2019-06-20T04:29:15.835Z,21.80
2019-06-20T04:30:20.187Z,21.80
2019-06-20T04:31:26.073Z,21.80
2019-06-20T04:32:30.472Z,21.80
2019-06-20T04:33:35.955Z,21.70
2019-06-20T04:34:40.349Z,21.80
2019-06-20T04:35:45.458Z,21.70
2019-06-20T04:36:49.921Z,21.70
2019-06-20T04:37:55.085Z,21.70
2019-06-20T04:38:59.453Z,21.70
2019-06-20T04:40:04.601Z,21.70
2019-06-20T04:41:10.513Z,21.70
2019-06-20T04:42:18.683Z,21.70
2019-06-20T04:43:21.991Z,21.70
2019-06-20T04:44:26.945Z,21.60
2019-06-20T04:45:40.189Z,21.70
2019-06-20T04:46:59.335Z,21.70
2019-06-20T04:48:03.782Z,21.70
2019-06-20T04:49:08.818Z,21.70
2019-06-20T04:50:13.788Z,21.60
2019-06-20T04:51:18.730Z,21.70
2019-06-20T04:52:23.193Z,21.70
2019-06-20T04:53:28.182Z,21.70
2019-06-20T04:54:32.551Z,21.70
2019-06-20T04:55:38.062Z,21.70
2019-06-20T04:56:42.445Z,21.70
2019-06-20T04:57:47.535Z,21.70
2019-06-20T04:58:53.056Z,21.80
2019-06-20T05:00:04.281Z,21.80
2019-06-20T05:01:08.719Z,21.70
2019-06-20T05:02:15.109Z,21.70
2019-06-20T05:03:19.831Z,21.70
2019-06-20T05:04:24.815Z,21.70
2019-06-20T05:05:29.323Z,21.70
2019-06-20T05:06:34.336Z,21.70
2019-06-20T05:07:39.054Z,21.70
2019-06-20T05:08:44.123Z,21.70
2019-06-20T05:09:48.629Z,21.70
2019-06-20T05:10:53.649Z,21.80
2019-06-20T05:11:58.418Z,21.70
2019-06-20T05:13:03.458Z,21.70
2019-06-20T05:14:07.929Z,21.70
2019-06-20T05:15:14.777Z,21.70
2019-06-20T05:16:19.182Z,21.70
2019-06-20T05:17:24.289Z,21.70
2019-06-20T05:18:28.737Z,21.70
2019-06-20T05:19:35.065Z,21.80
2019-06-20T05:20:41.248Z,21.80
2019-06-20T05:21:46.283Z,21.80
2019-06-20T05:22:50.720Z,21.80
2019-06-20T05:23:55.873Z,21.90
2019-06-20T05:25:02.840Z,21.90
2019-06-20T05:26:07.946Z,22.00
2019-06-20T05:27:12.826Z,22.00
2019-06-20T05:28:18.190Z,22.00
2019-06-20T05:29:22.589Z,22.00
2019-06-20T05:30:28.520Z,22.00
2019-06-20T05:31:33.129Z,22.10
2019-06-20T05:32:38.391Z,22.10
2019-06-20T05:33:42.825Z,22.20
2019-06-20T05:34:48.465Z,22.20
2019-06-20T05:35:53.109Z,22.30
2019-06-20T05:36:58.168Z,22.30
2019-06-20T05:38:02.803Z,22.30
2019-06-20T05:39:08.523Z,22.30
2019-06-20T05:40:13.848Z,22.40
2019-06-20T05:41:18.887Z,22.40
2019-06-20T05:42:23.302Z,22.40
2019-06-20T05:43:28.297Z,22.40
2019-06-20T05:44:32.770Z,22.30
2019-06-20T05:45:38.102Z,22.20
2019-06-20T05:46:42.624Z,22.10
2019-06-20T05:47:47.643Z,22.10
2019-06-20T05:48:53.473Z,22.10
2019-06-20T05:49:58.537Z,22.10
2019-06-20T05:51:03.002Z,22.10
2019-06-20T05:52:08.127Z,22.10
2019-06-20T05:53:13.234Z,22.20
2019-06-20T05:54:18.185Z,22.20
2019-06-20T05:55:22.726Z,22.20
2019-06-20T05:56:27.680Z,22.30
2019-06-20T05:57:32.246Z,22.40
2019-06-20T05:58:37.440Z,22.40
2019-06-20T05:59:41.938Z,22.50
2019-06-20T06:00:47.145Z,22.50
2019-06-20T06:01:51.802Z,22.60
2019-06-20T06:02:58.297Z,22.60
2019-06-20T06:04:02.988Z,22.50
2019-06-20T06:05:09.826Z,22.40
2019-06-20T06:06:15.686Z,22.40
2019-06-20T06:07:20.838Z,22.60
2019-06-20T06:08:25.349Z,22.70
2019-06-20T06:09:30.566Z,22.90
2019-06-20T06:10:35.063Z,23.00
2019-06-20T06:11:40.293Z,23.10
2019-06-20T06:12:45.281Z,23.10
2019-06-20T06:13:50.435Z,23.10
2019-06-20T06:14:54.950Z,23.20
2019-06-20T06:16:02.088Z,23.20
2019-06-20T06:17:06.748Z,23.10
2019-06-20T06:18:14.501Z,22.90
2019-06-20T06:19:18.977Z,22.70
2019-06-20T06:20:24.457Z,22.60
2019-06-20T06:21:29.075Z,22.60
2019-06-20T06:22:34.225Z,22.60
2019-06-20T06:23:39.294Z,22.70
2019-06-20T06:24:44.365Z,22.70
2019-06-20T06:25:48.859Z,22.90
2019-06-20T06:26:53.944Z,23.10
2019-06-20T06:28:01.967Z,23.40
2019-06-20T06:29:07.067Z,23.50
2019-06-20T06:30:14.905Z,23.70
2019-06-20T06:31:20.059Z,23.90
2019-06-20T06:32:39.228Z,24.10
2019-06-20T06:33:31.676Z,24.20
2019-06-20T06:34:36.179Z,24.10
2019-06-20T06:35:41.228Z,24.10
2019-06-20T06:36:45.866Z,24.00
2019-06-20T06:37:51.029Z,23.90
2019-06-20T06:38:55.500Z,24.00
2019-06-20T06:40:01.840Z,23.90
2019-06-20T06:41:07.547Z,23.70
2019-06-20T06:42:12.932Z,23.50
2019-06-20T06:43:17.499Z,23.40
2019-06-20T06:44:22.780Z,23.40
2019-06-20T06:45:28.526Z,23.40
2019-06-20T06:46:43.727Z,23.40
2019-06-20T06:47:40.653Z,23.10
2019-06-20T06:48:46.047Z,23.00
2019-06-20T06:49:50.640Z,23.00
2019-06-20T06:50:55.689Z,23.00
2019-06-20T06:52:00.814Z,23.00
2019-06-20T06:53:05.875Z,23.00
2019-06-20T06:54:10.472Z,23.10
2019-06-20T06:55:16.551Z,22.90
2019-06-20T06:56:21.033Z,23.20
2019-06-20T06:57:26.457Z,23.40
2019-06-20T06:58:30.939Z,23.40
2019-06-20T06:59:36.115Z,23.40
2019-06-20T07:00:40.612Z,23.60
2019-06-20T07:01:45.983Z,23.70
2019-06-20T07:02:50.543Z,24.00
2019-06-20T07:03:55.661Z,24.30
2019-06-20T07:05:00.064Z,24.10
2019-06-20T07:06:05.126Z,23.80
2019-06-20T07:07:10.130Z,23.50
2019-06-20T07:08:15.346Z,23.10
2019-06-20T07:09:19.789Z,22.80
2019-06-20T07:10:25.323Z,22.60
2019-06-20T07:11:29.891Z,22.60
2019-06-20T07:12:36.303Z,22.70
2019-06-20T07:13:40.923Z,22.90
2019-06-20T07:14:46.740Z,23.10
2019-06-20T07:15:51.257Z,23.50
2019-06-20T07:17:00.264Z,24.20
2019-06-20T07:18:03.523Z,24.80
2019-06-20T07:19:09.550Z,25.10
2019-06-20T07:20:17.716Z,25.20
2019-06-20T07:21:23.265Z,25.40
2019-06-20T07:22:27.878Z,25.60
2019-06-20T07:23:33.082Z,25.60
2019-06-20T07:24:38.043Z,25.60
2019-06-20T07:25:43.170Z,25.40
2019-06-20T07:26:49.191Z,25.20
2019-06-20T07:27:54.641Z,25.00
2019-06-20T07:28:59.512Z,24.80
2019-06-20T07:30:06.248Z,24.70
2019-06-20T07:31:11.184Z,24.50
2019-06-20T07:32:16.624Z,24.20
2019-06-20T07:33:22.374Z,23.90
2019-06-20T07:34:27.676Z,23.80
2019-06-20T07:35:32.389Z,23.60
2019-06-20T07:36:37.546Z,23.20
2019-06-20T07:37:42.404Z,23.20
2019-06-20T07:38:47.637Z,23.20
2019-06-20T07:39:52.256Z,23.10
2019-06-20T07:40:57.404Z,23.10
2019-06-20T07:42:01.972Z,23.20
2019-06-20T07:43:07.701Z,23.40
2019-06-20T07:44:12.868Z,23.60
2019-06-20T07:45:20.252Z,23.80
2019-06-20T07:46:24.962Z,24.00
2019-06-20T07:47:30.227Z,24.10
2019-06-20T07:48:36.029Z,24.10
2019-06-20T07:49:41.241Z,24.00
2019-06-20T07:50:45.874Z,24.00
2019-06-20T07:51:51.082Z,24.10
2019-06-20T07:53:02.020Z,24.20
2019-06-20T07:54:06.750Z,24.50
2019-06-20T07:55:12.660Z,24.50
2019-06-20T07:56:18.069Z,24.70
2019-06-20T07:57:22.543Z,25.00
2019-06-20T07:58:27.555Z,25.20
2019-06-20T07:59:32.133Z,25.40
2019-06-20T08:00:37.357Z,25.60
2019-06-20T08:01:41.883Z,25.80
2019-06-20T08:02:48.805Z,25.90
2019-06-20T08:03:53.473Z,25.90
2019-06-20T08:04:58.791Z,25.90
2019-06-20T08:06:04.564Z,26.00
2019-06-20T08:07:09.703Z,25.70
2019-06-20T08:08:14.509Z,25.30
2019-06-20T08:09:22.073Z,25.10
2019-06-20T08:10:26.163Z,25.00
2019-06-20T08:11:31.158Z,25.00
2019-06-20T08:12:37.532Z,25.00
2019-06-20T08:13:43.436Z,25.00
2019-06-20T08:14:47.926Z,24.80
2019-06-20T08:15:53.806Z,24.50
2019-06-20T08:16:58.432Z,24.30
2019-06-20T08:18:03.427Z,24.00
2019-06-20T08:19:08.085Z,23.80
2019-06-20T08:20:14.523Z,23.60
2019-06-20T08:21:19.130Z,23.50
2019-06-20T08:22:24.683Z,23.30
2019-06-20T08:23:29.149Z,23.00
2019-06-20T08:24:36.093Z,22.80
2019-06-20T08:25:40.600Z,22.50
2019-06-20T08:26:45.766Z,22.50
2019-06-20T08:27:53.609Z,22.50
2019-06-20T08:29:15.552Z,22.50
2019-06-20T08:30:07.376Z,22.50
2019-06-20T08:31:12.870Z,22.50
2019-06-20T08:32:17.422Z,22.40
2019-06-20T08:33:22.513Z,22.40
2019-06-20T08:34:26.899Z,22.50
2019-06-20T08:35:32.950Z,22.60
2019-06-20T08:36:39.338Z,23.20
2019-06-20T08:37:45.937Z,24.10
2019-06-20T08:38:50.500Z,25.20
2019-06-20T08:39:56.753Z,26.30
2019-06-20T08:41:02.122Z,27.20
2019-06-20T08:42:07.377Z,28.20
2019-06-20T08:43:12.555Z,29.00
2019-06-20T08:44:18.046Z,29.70
2019-06-20T08:45:23.504Z,30.00
2019-06-20T08:46:28.617Z,30.40
2019-06-20T08:47:33.084Z,30.90
2019-06-20T08:48:38.339Z,31.40
2019-06-20T08:49:42.910Z,31.90
2019-06-20T08:50:48.135Z,32.10
2019-06-20T08:51:52.601Z,31.90
2019-06-20T08:52:58.474Z,32.30
2019-06-20T08:54:03.886Z,32.60
2019-06-20T08:55:09.520Z,32.70
2019-06-20T08:56:14.144Z,32.70
2019-06-20T08:57:23.036Z,32.30
2019-06-20T08:58:27.188Z,31.80
2019-06-20T08:59:34.320Z,31.40
2019-06-20T09:00:40.745Z,31.10
2019-06-20T09:01:45.752Z,30.70
2019-06-20T09:02:50.293Z,30.40
2019-06-20T09:03:56.709Z,30.20
2019-06-20T09:06:06.927Z,29.20
2019-06-20T09:07:12.966Z,28.80
2019-06-20T09:08:18.174Z,28.30
2019-06-20T09:09:22.639Z,28.00
2019-06-20T09:10:37.286Z,27.80
2019-06-20T09:11:41.912Z,27.70
2019-06-20T09:12:47.290Z,27.70
2019-06-20T09:13:53.997Z,27.80
2019-06-20T09:14:59.351Z,28.10
2019-06-20T09:16:05.132Z,28.10
2019-06-20T09:17:10.303Z,28.50
2019-06-20T09:18:15.253Z,28.80
2019-06-20T09:19:20.306Z,29.10
2019-06-20T09:20:24.803Z,29.40
2019-06-20T09:21:30.088Z,29.70
2019-06-20T09:22:34.727Z,30.40
2019-06-20T09:23:41.362Z,30.80
2019-06-20T09:24:45.990Z,31.10
2019-06-20T09:25:52.342Z,31.10
2019-06-20T09:26:57.240Z,31.30
2019-06-20T09:28:04.234Z,31.30
2019-06-20T09:29:08.876Z,31.30
2019-06-20T09:30:14.904Z,31.00
2019-06-20T09:31:19.511Z,30.40
2019-06-20T09:32:24.824Z,29.90
2019-06-20T09:33:29.634Z,29.60
2019-06-20T09:34:34.763Z,29.50
2019-06-20T09:35:41.252Z,29.30
2019-06-20T09:36:46.441Z,28.90
2019-06-20T09:37:53.619Z,28.90
2019-06-20T09:38:59.574Z,29.00
2019-06-20T09:40:05.586Z,29.00
2019-06-20T09:41:11.112Z,28.80
2019-06-20T09:42:15.788Z,28.30
2019-06-20T09:43:27.636Z,28.10
2019-06-20T09:44:28.369Z,28.00
2019-06-20T09:45:33.597Z,27.70
2019-06-20T09:46:38.150Z,27.10
2019-06-20T09:47:43.220Z,26.90
2019-06-20T09:48:47.759Z,26.80
2019-06-20T09:49:55.622Z,26.80
2019-06-20T09:50:59.135Z,26.80
2019-06-20T09:52:04.658Z,26.70
2019-06-20T09:53:10.318Z,26.60
2019-06-20T09:54:15.715Z,26.50
2019-06-20T09:55:21.316Z,26.50
2019-06-20T09:56:26.424Z,26.50
2019-06-20T09:57:30.915Z,26.50
2019-06-20T09:58:35.988Z,26.40
2019-06-20T09:59:53.523Z,26.60
2019-06-20T10:00:48.985Z,26.80
2019-06-20T10:01:55.743Z,26.60
2019-06-20T10:03:00.672Z,26.60
2019-06-20T10:04:05.555Z,26.80
2019-06-20T10:05:12.891Z,27.00
2019-06-20T10:06:19.158Z,27.10
2019-06-20T10:07:24.175Z,27.20
2019-06-20T10:08:28.665Z,27.30
2019-06-20T10:09:33.716Z,27.50
2019-06-20T10:10:38.670Z,27.60
2019-06-20T10:11:43.785Z,27.70
2019-06-20T10:12:49.699Z,27.60
2019-06-20T10:13:56.004Z,27.70
2019-06-20T10:15:00.804Z,27.70
2019-06-20T10:16:06.274Z,27.60
2019-06-20T10:17:11.151Z,27.60
2019-06-20T10:18:16.512Z,27.70
2019-06-20T10:19:21.111Z,27.70
2019-06-20T10:20:26.787Z,27.80
2019-06-20T10:21:31.432Z,27.80
2019-06-20T10:22:37.473Z,27.80
2019-06-20T10:23:43.061Z,28.20
2019-06-20T10:24:49.158Z,28.80
2019-06-20T10:25:53.796Z,29.10
2019-06-20T10:26:58.766Z,29.00
2019-06-20T10:28:03.624Z,29.00
2019-06-20T10:29:08.715Z,28.80
2019-06-20T10:30:18.264Z,28.70
2019-06-20T10:31:22.744Z,28.90
2019-06-20T10:32:27.722Z,28.90
2019-06-20T10:33:32.456Z,28.80
2019-06-20T10:34:37.471Z,28.50
2019-06-20T10:35:42.267Z,28.60
2019-06-20T10:36:48.151Z,28.60
2019-06-20T10:37:53.157Z,28.60
2019-06-20T10:38:58.306Z,28.80
2019-06-20T10:40:02.813Z,29.00
2019-06-20T10:41:07.824Z,29.10
2019-06-20T10:42:13.153Z,29.20
2019-06-20T10:43:18.642Z,29.00
2019-06-20T10:44:23.175Z,28.80
2019-06-20T10:45:29.279Z,28.10
2019-06-20T10:46:34.038Z,27.60
2019-06-20T10:47:39.433Z,27.10
2019-06-20T10:48:44.333Z,26.80
2019-06-20T10:49:51.946Z,26.70
2019-06-20T10:51:15.652Z,26.70
2019-06-20T10:52:20.198Z,26.50
2019-06-20T10:53:25.373Z,26.40
2019-06-20T10:54:29.950Z,26.20
2019-06-20T10:55:35.366Z,26.30
2019-06-20T10:56:40.421Z,26.30
2019-06-20T10:57:46.953Z,26.60
2019-06-20T10:58:52.728Z,26.80
2019-06-20T10:59:57.699Z,26.90
2019-06-20T11:01:02.266Z,26.90
2019-06-20T11:02:07.896Z,27.10
2019-06-20T11:03:13.306Z,27.10
2019-06-20T11:04:18.338Z,27.20
2019-06-20T11:05:23.077Z,27.10
2019-06-20T11:06:28.295Z,27.10
2019-06-20T11:07:32.758Z,26.90
2019-06-20T11:08:39.114Z,26.50
2019-06-20T11:09:45.213Z,26.40
2019-06-20T11:10:50.423Z,26.30
2019-06-20T11:11:54.966Z,26.20
2019-06-20T11:12:59.939Z,26.00
2019-06-20T11:14:04.592Z,25.90
2019-06-20T11:15:10.724Z,25.90
2019-06-20T11:16:15.601Z,26.00
2019-06-20T11:17:20.899Z,26.00
2019-06-20T11:18:26.599Z,26.10
2019-06-20T11:19:31.698Z,26.00
2019-06-20T11:20:36.298Z,26.00
2019-06-20T11:21:43.272Z,26.00
2019-06-20T11:22:48.104Z,26.00
2019-06-20T11:23:53.288Z,26.00
2019-06-20T11:24:58.884Z,26.00
2019-06-20T11:26:03.915Z,25.80
2019-06-20T11:27:08.426Z,25.80
2019-06-20T11:28:13.806Z,25.80
2019-06-20T11:29:18.453Z,25.80
2019-06-20T11:30:23.889Z,25.80
2019-06-20T11:31:28.452Z,25.90
2019-06-20T11:32:33.648Z,26.00
2019-06-20T11:33:38.994Z,25.90
2019-06-20T11:34:44.989Z,25.60
2019-06-20T11:35:49.354Z,25.50
2019-06-20T11:36:54.358Z,25.40
2019-06-20T11:37:58.754Z,25.50
2019-06-20T11:39:03.921Z,25.50
2019-06-20T11:40:10.576Z,25.60
2019-06-20T11:41:15.951Z,25.60
2019-06-20T11:42:20.434Z,25.70
2019-06-20T11:43:25.543Z,25.60
2019-06-20T11:44:30.028Z,25.80
2019-06-20T11:45:36.040Z,25.90
2019-06-20T11:46:42.609Z,25.90
2019-06-20T11:47:48.068Z,26.00
2019-06-20T11:48:52.819Z,26.10
2019-06-20T11:49:58.023Z,26.20
2019-06-20T11:51:02.623Z,26.30
2019-06-20T11:52:10.941Z,26.40
2019-06-20T11:53:15.675Z,26.50
2019-06-20T11:54:20.813Z,26.70
2019-06-20T11:55:25.433Z,26.80
2019-06-20T11:56:30.536Z,26.90
2019-06-20T11:57:35.148Z,26.80
2019-06-20T11:58:40.362Z,27.00
2019-06-20T11:59:45.662Z,27.00
2019-06-20T12:01:03.157Z,27.10
2019-06-20T12:01:56.808Z,27.10
2019-06-20T12:03:01.948Z,27.10
2019-06-20T12:04:09.368Z,27.10
2019-06-20T12:05:13.863Z,27.10
2019-06-20T12:06:18.383Z,27.00
2019-06-20T12:07:23.424Z,26.90
2019-06-20T12:08:27.893Z,27.10
2019-06-20T12:09:33.105Z,27.10
2019-06-20T12:10:38.043Z,27.10
2019-06-20T12:11:48.771Z,27.00
2019-06-20T12:12:53.318Z,27.10
2019-06-20T12:13:58.351Z,27.10
2019-06-20T12:15:02.825Z,26.90
2019-06-20T12:16:08.162Z,26.90
2019-06-20T12:17:12.953Z,26.90
2019-06-20T12:18:17.992Z,27.10
2019-06-20T12:19:22.410Z,27.30
2019-06-20T12:20:27.403Z,27.40
2019-06-20T12:21:31.932Z,27.60
2019-06-20T12:22:39.394Z,27.70
2019-06-20T12:23:44.943Z,27.70
2019-06-20T12:24:50.156Z,27.70
2019-06-20T12:25:54.825Z,27.60
2019-06-20T12:26:59.809Z,27.50
2019-06-20T12:28:04.437Z,27.30
2019-06-20T12:29:09.724Z,27.30
2019-06-20T12:30:15.411Z,27.30
2019-06-20T12:31:20.435Z,27.20
2019-06-20T12:32:24.843Z,27.30
2019-06-20T12:33:29.983Z,27.40
2019-06-20T12:34:34.581Z,27.60
2019-06-20T12:35:41.343Z,27.60
2019-06-20T12:36:46.626Z,27.70
2019-06-20T12:37:52.100Z,27.80
2019-06-20T12:38:56.802Z,27.90
2019-06-20T12:40:01.998Z,27.90
2019-06-20T12:41:06.477Z,27.90
2019-06-20T12:42:11.650Z,27.90
2019-06-20T12:43:16.223Z,27.90
2019-06-20T12:44:21.315Z,28.00
2019-06-20T12:45:25.842Z,27.90
2019-06-20T12:46:30.943Z,28.00
2019-06-20T12:47:35.380Z,27.50
2019-06-20T12:48:41.246Z,27.30
2019-06-20T12:49:50.731Z,27.30
2019-06-20T12:50:55.946Z,27.20
2019-06-20T12:52:00.390Z,27.20
2019-06-20T12:53:05.346Z,27.20
2019-06-20T12:54:09.971Z,27.20
2019-06-20T12:55:15.103Z,27.20
2019-06-20T12:56:19.655Z,27.00
2019-06-20T12:57:24.723Z,26.90
2019-06-20T12:58:29.136Z,26.90
2019-06-20T12:59:34.170Z,27.10
2019-06-20T13:00:41.173Z,27.20
2019-06-20T13:01:48.367Z,27.30
2019-06-20T13:02:52.303Z,27.50
2019-06-20T13:03:57.310Z,27.70
2019-06-20T13:05:01.847Z,27.90
2019-06-20T13:06:06.990Z,28.10
2019-06-20T13:07:11.805Z,28.30
2019-06-20T13:08:16.894Z,28.50
2019-06-20T13:09:21.366Z,28.60
2019-06-20T13:10:26.582Z,28.80
2019-06-20T13:11:31.150Z,28.70
2019-06-20T13:12:36.246Z,28.80
2019-06-20T13:13:42.119Z,28.60
2019-06-20T13:14:47.627Z,28.30
2019-06-20T13:15:52.166Z,27.90
2019-06-20T13:16:57.396Z,27.70
2019-06-20T13:18:01.837Z,27.70
2019-06-20T13:19:06.794Z,27.70
2019-06-20T13:20:11.648Z,27.70
2019-06-20T13:21:18.986Z,27.50
2019-06-20T13:22:22.856Z,27.40
2019-06-20T13:23:27.899Z,27.40
2019-06-20T13:24:32.762Z,27.50
2019-06-20T13:25:39.160Z,27.40
2019-06-20T13:26:44.074Z,27.30
2019-06-20T13:27:50.602Z,26.90
2019-06-20T13:29:03.830Z,26.80
2019-06-20T13:30:02.266Z,26.60
2019-06-20T13:31:06.865Z,26.20
2019-06-20T13:32:12.081Z,26.00
2019-06-20T13:33:16.702Z,25.90
2019-06-20T13:34:21.705Z,25.90
2019-06-20T13:35:26.725Z,26.00
2019-06-20T13:36:31.763Z,26.20
2019-06-20T13:37:36.178Z,26.20
2019-06-20T13:38:42.678Z,25.90
2019-06-20T13:39:47.448Z,25.90
2019-06-20T13:40:52.524Z,25.70
2019-06-20T13:41:57.145Z,25.60
2019-06-20T13:43:02.312Z,25.70
2019-06-20T13:44:06.774Z,25.60
2019-06-20T13:45:21.485Z,25.60
2019-06-20T13:46:25.979Z,25.40
2019-06-20T13:47:31.119Z,25.40
2019-06-20T13:48:35.569Z,25.40
2019-06-20T13:49:41.501Z,25.50
2019-06-20T13:50:47.352Z,25.60
2019-06-20T13:51:52.564Z,25.70
2019-06-20T13:52:57.120Z,25.60
2019-06-20T13:54:02.279Z,25.60
2019-06-20T13:55:06.968Z,25.60
2019-06-20T13:56:12.268Z,25.80
2019-06-20T13:57:16.880Z,25.80
2019-06-20T13:58:22.181Z,25.80
2019-06-20T13:59:26.790Z,25.70
2019-06-20T14:00:33.430Z,25.70
2019-06-20T14:01:40.130Z,25.60
2019-06-20T14:02:46.597Z,25.30
2019-06-20T14:03:51.003Z,25.10